^^

Meteo Aereoporti Centro-Italia

 

 
LIRZ - Perugia S.Egidio (208 m.)
Dati ricevuti: 06/07/2020 10:50
Sereno
Sereno
 Vento da NE
Vento: NE 17 km/h
TEMPERATURA: 28°C
Indice di Calore: 28°C
P.to di Rugiada: 14°C
Umidità: 42%
Pressione: 1011 hPa
Nuvole: Sereno
Visibilità: 10 km
2020/07/06 08:50 LIRZ 060850Z AUTO 05009KT 9999 NCD 28/14 Q1011
 
LIPY - Ancona Falconara (12 m.)
Dati ricevuti: 06/07/2020 10:50
Sereno
Sereno
 Vento da NNW
Vento: NNW 19 km/h
TEMPERATURA: 28°C
Indice di Calore: 30°C
P.to di Rugiada: 21°C
Umidità: 66%
Pressione: 1010 hPa
Nuvole: Sereno
Visibilità: 10 km
2020/07/06 08:50 LIPY 060850Z AUTO 33010KT 9999 NCD 28/21 Q1010
 
LIPR - Rimini Miramare (12 m.)
Dati ricevuti: 06/07/2020 10:50
Sereno
Sereno
 Vento da NNW
Vento: NNW 17 km/h
TEMPERATURA: 28°C
Indice di Calore: 28°C
P.to di Rugiada: 16°C
Umidità: 48%
Pressione: 1011 hPa
Condizioni generali: Sereno
Visibilità: oltre 10 km
2020/07/06 08:50 LIPR 060850Z 34009KT 310V020 CAVOK 28/16 Q1011
 
LIRF - Roma Fiumicino (2 m.)
Dati ricevuti: 06/07/2020 10:50
Sereno
Sereno
 Vento da direzione variabile
Vento: direzione variabile 6 km/h
TEMPERATURA: 30°C
Indice di Calore: 30°C
P.to di Rugiada: 16°C
Umidità: 43%
Pressione: 1009 hPa
Condizioni generali: Sereno
Visibilità: oltre 10 km
2020/07/06 08:50 LIRF 060850Z VRB03KT CAVOK 30/16 Q1009 NOSIG
 
LIRA - Roma Ciampino (129 m.)
Dati ricevuti: 06/07/2020 10:50
Sereno
Sereno
 Vento da NNE
Vento: NNE 7 km/h
TEMPERATURA: 28°C
Indice di Calore: 28°C
P.to di Rugiada: 15°C
Umidità: 45%
Pressione: 1010 hPa
Condizioni generali: Sereno
Visibilità: oltre 10 km
2020/07/06 08:50 LIRA 060850Z 02004KT 310V080 CAVOK 28/15 Q1010
 
LIRU - Roma Urbe (17 m.)
Dati ricevuti: 06/07/2020 09:50
Sereno
Sereno
 Vento da N
Vento: N 11 km/h
TEMPERATURA: 27°C
P.to di Rugiada: 12°C
Umidità: 39%
Pressione: 1010 hPa
Condizioni generali: Sereno
Visibilità: oltre 10 km
2020/07/06 07:50 LIRU 060750Z 35006KT CAVOK 27/12 Q1010
 
LIVF - Frontone (570 m.)
Dati ricevuti: 06/07/2020 09:55
Sereno
Sereno
 Vento da NW
Vento: NW 4 km/h
TEMPERATURA: 25°C
P.to di Rugiada: 12°C
Umidità: 44%
Pressione: 1012 hPa
Condizioni generali: Sereno
Visibilità: oltre 10 km
2020/07/06 07:55 LIVF 060755Z 32002KT CAVOK 25/12 Q1012
 
LIRQ - Firenze Peretola (40 m.)
Dati ricevuti: 06/07/2020 10:50
Sereno
Sereno
 Vento da direzione variabile
Vento: direzione variabile 6 km/h
TEMPERATURA: 29°C
Indice di Calore: 29°C
P.to di Rugiada: 16°C
Umidità: 45%
Pressione: 1010 hPa
Condizioni generali: Sereno
Visibilità: oltre 10 km
2020/07/06 08:50 LIRQ 060850Z VRB03KT CAVOK 29/16 Q1010
 
LIBP - Pescara (10 m.)
Dati ricevuti: 06/07/2020 10:50
Sereno
Sereno
 Vento da NNE
Vento: NNE 19 km/h
TEMPERATURA: 28°C
Indice di Calore: 28°C
P.to di Rugiada: 14°C
Umidità: 42%
Pressione: 1010 hPa
Nuvole: Sereno
Visibilità: 10 km
2020/07/06 08:50 LIBP 060850Z AUTO 03010KT 360V060 9999 NCD 28/14 Q1010
 
LIRV - Viterbo (300 m.)
Dati ricevuti: 06/07/2020 09:55
Sereno
Sereno
 Vento da ENE
Vento: ENE 24 km/h
TEMPERATURA: 24°C
P.to di Rugiada: 13°C
Umidità: 50%
Pressione: 1011 hPa
Condizioni generali: Sereno
Visibilità: oltre 10 km
2020/07/06 07:55 LIRV 060755Z 06013KT CAVOK 24/13 Q1011
 
LIQN - Rieti (389 m.)
Dati ricevuti: 06/07/2020 10:00
Sereno
Sereno
 Vento da direzione variabile
Vento: direzione variabile 4 km/h
TEMPERATURA: 23°C
P.to di Rugiada: 14°C
Umidità: 57%
Pressione: 1011 hPa
Condizioni generali: Sereno
Visibilità: oltre 10 km
2020/07/06 08:00 LIQN 060800Z VRB02KT CAVOK 23/14 Q1011
 
LIRG - Guidonia -RM- (88 m.)
Dati ricevuti: 06/07/2020 09:55
Sereno
Sereno
 Vento da W
Vento: W 4 km/h
TEMPERATURA: 26°C
P.to di Rugiada: 16°C
Umidità: 54%
Pressione: 1011 hPa
Condizioni generali: Sereno
Visibilità: oltre 10 km
2020/07/06 07:55 LIRG 060755Z 27002KT CAVOK 26/16 Q1011
 
LIRK - Terminillo -RI-(1874 m.)
Dati ricevuti: 06/07/2020 09:55

 Vento da E
Vento: E 9 km/h
TEMPERATURA: 15°C
P.to di Rugiada: 2°C
Umidità: 42%
Pressione: 1019 hPa
2020/07/06 07:55 LIRK 060755Z AUTO 09005KT 030V180 //// 15/02 Q1019
 
LIPK - Forlì (27 m.)
Dati ricevuti: 06/07/2020 10:50
Sereno
Sereno
 Vento da direzione variabile
Vento: direzione variabile 4 km/h
TEMPERATURA: 29°C
Indice di Calore: 30°C
P.to di Rugiada: 19°C
Umidità: 55%
Pressione: 1010 hPa
Condizioni generali: Sereno
Visibilità: oltre 10 km
2020/07/06 08:50 LIPK 060850Z VRB02KT CAVOK 29/19 Q1010
 
LIRS - Grosseto (5 m.)
Dati ricevuti: 06/07/2020 09:55
Sereno
Sereno
 Vento da direzione variabile
Vento: direzione variabile 7 km/h
TEMPERATURA: 29°C
P.to di Rugiada: 13°C
Umidità: 37%
Pressione: 1010 hPa
Condizioni generali: Sereno
Visibilità: oltre 10 km
2020/07/06 07:55 LIRS 060755Z VRB04KT CAVOK 29/13 Q1010
 
LIRP - Pisa S.Giusto (2 m.)
Dati ricevuti: 06/07/2020 10:45
Qualche nuvola
Qualche nuvola
 Vento da W
Vento: W 11 km/h
TEMPERATURA: 27°C
Indice di Calore: 29°C
P.to di Rugiada: 22°C
Umidità: 74%
Pressione: 1010 hPa
Nuvole: Qualche nuvola
Visibilità: 10 km
Dettagli Nuvole: Qualche nuvola 610 m
2020/07/06 08:45 LIRP 060845Z 28006KT 9999 FEW020 27/22 Q1010 NOSIG